Terminal Aerodrome Forecast
Issued by NWS

Home | Current Version | Previous Version | Text Only | Print | Product List | Glossary On
Versions: 1 2 3 4 5 6 7 8 9 10 11 12 13 14
000
FTUS46 KPDT 191100
TAFALW
TAF
KALW 191120Z 1912/2012 18009KT P6SM SCT200
     FM191600 22009KT P6SM FEW200
     FM200400 18006KT P6SM SKC=

USA.gov is the U.S. government's official web portal to all federal, state and local government web resources and services.